sensor_id;sensor_type;location;lat;lon;timestamp;pressure;altitude;pressure_sealevel;temperature;humidity
77897;BME280;67092;64.282;21.056;2023-05-27T00:00:26;101732.46;;;20.45;25.49
77897;BME280;67092;64.282;21.056;2023-05-27T00:02:52;101736.95;;;20.59;25.55
77897;BME280;67092;64.282;21.056;2023-05-27T00:05:17;101740.11;;;20.63;25.25
77897;BME280;67092;64.282;21.056;2023-05-27T00:07:43;101743.20;;;21.23;24.97
77897;BME280;67092;64.282;21.056;2023-05-27T00:10:09;101746.27;;;20.92;25.26
77897;BME280;67092;64.282;21.056;2023-05-27T00:12:34;101748.50;;;20.24;25.65
77897;BME280;67092;64.282;21.056;2023-05-27T00:15:00;101751.48;;;20.56;25.56
77897;BME280;67092;64.282;21.056;2023-05-27T00:17:25;101752.93;;;20.86;25.32
77897;BME280;67092;64.282;21.056;2023-05-27T00:19:51;101755.33;;;20.72;24.94
77897;BME280;67092;64.282;21.056;2023-05-27T00:22:17;101755.84;;;21.15;25.01
77897;BME280;67092;64.282;21.056;2023-05-27T00:24:42;101757.57;;;20.66;25.48
77897;BME280;67092;64.282;21.056;2023-05-27T00:27:08;101762.00;;;20.85;25.28
77897;BME280;67092;64.282;21.056;2023-05-27T00:29:33;101760.75;;;20.30;25.60
77897;BME280;67092;64.282;21.056;2023-05-27T00:32:00;101763.18;;;20.58;25.37
77897;BME280;67092;64.282;21.056;2023-05-27T00:34:25;101764.54;;;20.55;25.41
77897;BME280;67092;64.282;21.056;2023-05-27T00:36:50;101770.91;;;20.26;25.88
77897;BME280;67092;64.282;21.056;2023-05-27T00:39:16;101770.53;;;20.49;25.66
77897;BME280;67092;64.282;21.056;2023-05-27T00:41:45;101772.32;;;20.32;25.77
77897;BME280;67092;64.282;21.056;2023-05-27T00:44:07;101773.12;;;20.41;25.69
77897;BME280;67092;64.282;21.056;2023-05-27T00:46:32;101776.94;;;20.31;25.76
77897;BME280;67092;64.282;21.056;2023-05-27T00:48:58;101780.93;;;20.62;25.41
77897;BME280;67092;64.282;21.056;2023-05-27T00:51:24;101785.03;;;20.42;25.59
77897;BME280;67092;64.282;21.056;2023-05-27T00:53:49;101786.43;;;20.72;25.30
77897;BME280;67092;64.282;21.056;2023-05-27T00:56:15;101788.65;;;20.45;25.75
77897;BME280;67092;64.282;21.056;2023-05-27T00:58:41;101788.80;;;20.47;25.52
77897;BME280;67092;64.282;21.056;2023-05-27T01:01:06;101790.98;;;20.41;25.54
77897;BME280;67092;64.282;21.056;2023-05-27T01:03:32;101792.59;;;20.28;25.41
77897;BME280;67092;64.282;21.056;2023-05-27T01:06:14;101797.79;;;20.15;25.78
77897;BME280;67092;64.282;21.056;2023-05-27T01:08:29;101794.98;;;20.41;25.28
77897;BME280;67092;64.282;21.056;2023-05-27T01:10:50;101795.16;;;20.46;25.42
77897;BME280;67092;64.282;21.056;2023-05-27T01:13:18;101798.63;;;20.20;25.68
77897;BME280;67092;64.282;21.056;2023-05-27T01:15:40;101795.01;;;20.41;25.42
77897;BME280;67092;64.282;21.056;2023-05-27T01:18:06;101797.72;;;20.37;25.23
77897;BME280;67092;64.282;21.056;2023-05-27T01:20:33;101801.54;;;20.23;25.58
77897;BME280;67092;64.282;21.056;2023-05-27T01:22:57;101801.67;;;20.72;25.10
77897;BME280;67092;64.282;21.056;2023-05-27T01:25:22;101800.93;;;20.01;25.75
77897;BME280;67092;64.282;21.056;2023-05-27T01:27:48;101805.19;;;20.53;25.23
77897;BME280;67092;64.282;21.056;2023-05-27T01:30:13;101810.06;;;20.16;25.60
77897;BME280;67092;64.282;21.056;2023-05-27T01:32:42;101811.02;;;20.23;25.50
77897;BME280;67092;64.282;21.056;2023-05-27T01:35:09;101812.19;;;20.10;25.93
77897;BME280;67092;64.282;21.056;2023-05-27T01:37:33;101811.23;;;20.30;25.49
77897;BME280;67092;64.282;21.056;2023-05-27T01:39:56;101815.06;;;19.95;25.82
77897;BME280;67092;64.282;21.056;2023-05-27T01:42:21;101823.79;;;19.77;26.00
77897;BME280;67092;64.282;21.056;2023-05-27T01:44:47;101818.37;;;20.04;25.74
77897;BME280;67092;64.282;21.056;2023-05-27T01:47:12;101823.57;;;20.06;25.75
77897;BME280;67092;64.282;21.056;2023-05-27T01:49:38;101825.47;;;20.18;25.84
77897;BME280;67092;64.282;21.056;2023-05-27T01:52:04;101824.07;;;20.46;25.59
77897;BME280;67092;64.282;21.056;2023-05-27T01:54:30;101828.52;;;20.52;25.52
77897;BME280;67092;64.282;21.056;2023-05-27T01:56:55;101837.28;;;20.17;25.87
77897;BME280;67092;64.282;21.056;2023-05-27T01:59:20;101839.49;;;19.99;25.84
77897;BME280;67092;64.282;21.056;2023-05-27T02:01:46;101841.40;;;19.95;25.88
77897;BME280;67092;64.282;21.056;2023-05-27T02:04:12;101839.20;;;20.37;25.73
77897;BME280;67092;64.282;21.056;2023-05-27T02:06:37;101834.80;;;20.10;25.71
77897;BME280;67092;64.282;21.056;2023-05-27T02:09:03;101835.96;;;20.27;25.55
77897;BME280;67092;64.282;21.056;2023-05-27T02:11:29;101838.58;;;20.63;25.42
77897;BME280;67092;64.282;21.056;2023-05-27T02:13:54;101843.29;;;19.89;26.15
77897;BME280;67092;64.282;21.056;2023-05-27T02:16:20;101846.90;;;19.72;26.08
77897;BME280;67092;64.282;21.056;2023-05-27T02:18:45;101848.04;;;19.89;25.95
77897;BME280;67092;64.282;21.056;2023-05-27T02:21:11;101849.83;;;20.14;25.94
77897;BME280;67092;64.282;21.056;2023-05-27T02:23:37;101850.89;;;20.49;25.58
77897;BME280;67092;64.282;21.056;2023-05-27T02:26:02;101856.62;;;20.34;25.73
77897;BME280;67092;64.282;21.056;2023-05-27T02:28:28;101859.24;;;20.10;25.73
77897;BME280;67092;64.282;21.056;2023-05-27T02:30:53;101857.81;;;20.11;25.72
77897;BME280;67092;64.282;21.056;2023-05-27T02:33:19;101860.25;;;20.00;26.07
77897;BME280;67092;64.282;21.056;2023-05-27T02:35:45;101861.94;;;19.93;26.16
77897;BME280;67092;64.282;21.056;2023-05-27T02:38:10;101865.20;;;20.03;26.09
77897;BME280;67092;64.282;21.056;2023-05-27T02:40:36;101865.00;;;19.98;26.13
77897;BME280;67092;64.282;21.056;2023-05-27T02:43:01;101866.10;;;19.91;25.94
77897;BME280;67092;64.282;21.056;2023-05-27T02:45:27;101866.81;;;20.35;25.95
77897;BME280;67092;64.282;21.056;2023-05-27T02:47:53;101869.43;;;19.56;26.25
77897;BME280;67092;64.282;21.056;2023-05-27T02:50:18;101875.12;;;20.06;26.01
77897;BME280;67092;64.282;21.056;2023-05-27T02:52:44;101876.04;;;19.91;25.96
77897;BME280;67092;64.282;21.056;2023-05-27T02:55:09;101881.50;;;20.02;26.09
77897;BME280;67092;64.282;21.056;2023-05-27T02:57:35;101881.55;;;20.29;26.03
77897;BME280;67092;64.282;21.056;2023-05-27T03:00:01;101881.73;;;20.32;25.75
77897;BME280;67092;64.282;21.056;2023-05-27T03:02:26;101882.41;;;19.96;26.13
77897;BME280;67092;64.282;21.056;2023-05-27T03:04:52;101882.83;;;19.82;26.24
77897;BME280;67092;64.282;21.056;2023-05-27T03:07:17;101888.70;;;19.74;26.13
77897;BME280;67092;64.282;21.056;2023-05-27T03:09:43;101890.89;;;19.84;25.98
77897;BME280;67092;64.282;21.056;2023-05-27T03:12:09;101886.62;;;19.70;26.37
77897;BME280;67092;64.282;21.056;2023-05-27T03:14:34;101887.36;;;20.01;26.11
77897;BME280;67092;64.282;21.056;2023-05-27T03:17:00;101885.50;;;19.91;25.91
77897;BME280;67092;64.282;21.056;2023-05-27T03:19:26;101887.96;;;19.90;26.17
77897;BME280;67092;64.282;21.056;2023-05-27T03:21:51;101889.43;;;19.97;26.11
77897;BME280;67092;64.282;21.056;2023-05-27T03:24:17;101888.88;;;20.18;25.87
77897;BME280;67092;64.282;21.056;2023-05-27T03:26:42;101890.72;;;19.79;26.05
77897;BME280;67092;64.282;21.056;2023-05-27T03:29:08;101890.17;;;19.68;26.19
77897;BME280;67092;64.282;21.056;2023-05-27T03:31:34;101892.28;;;19.92;25.99
77897;BME280;67092;64.282;21.056;2023-05-27T03:33:59;101891.29;;;20.06;25.80
77897;BME280;67092;64.282;21.056;2023-05-27T03:36:25;101890.55;;;20.16;25.98
77897;BME280;67092;64.282;21.056;2023-05-27T03:38:50;101891.89;;;20.08;26.03
77897;BME280;67092;64.282;21.056;2023-05-27T03:41:16;101892.61;;;19.92;26.02
77897;BME280;67092;64.282;21.056;2023-05-27T03:43:41;101888.58;;;19.94;26.22
77897;BME280;67092;64.282;21.056;2023-05-27T03:46:07;101887.37;;;20.10;26.08
77897;BME280;67092;64.282;21.056;2023-05-27T03:48:33;101888.61;;;19.29;26.64
77897;BME280;67092;64.282;21.056;2023-05-27T03:50:58;101890.36;;;20.05;26.39
77897;BME280;67092;64.282;21.056;2023-05-27T03:53:24;101891.22;;;20.06;26.34
77897;BME280;67092;64.282;21.056;2023-05-27T03:55:49;101891.68;;;19.73;26.44
77897;BME280;67092;64.282;21.056;2023-05-27T03:58:15;101897.17;;;20.09;26.14
77897;BME280;67092;64.282;21.056;2023-05-27T04:00:41;101902.71;;;20.21;25.98
77897;BME280;67092;64.282;21.056;2023-05-27T04:03:06;101907.28;;;20.21;25.97
77897;BME280;67092;64.282;21.056;2023-05-27T04:05:32;101907.41;;;19.79;26.14
77897;BME280;67092;64.282;21.056;2023-05-27T04:07:58;101907.78;;;20.21;26.01
77897;BME280;67092;64.282;21.056;2023-05-27T04:10:23;101907.68;;;20.29;26.15
77897;BME280;67092;64.282;21.056;2023-05-27T04:12:49;101911.70;;;20.69;25.76
77897;BME280;67092;64.282;21.056;2023-05-27T04:15:14;101917.14;;;20.09;26.16
77897;BME280;67092;64.282;21.056;2023-05-27T04:17:40;101917.06;;;20.28;25.95
77897;BME280;67092;64.282;21.056;2023-05-27T04:20:07;101917.35;;;19.77;26.46
77897;BME280;67092;64.282;21.056;2023-05-27T04:22:31;101915.88;;;19.72;26.52
77897;BME280;67092;64.282;21.056;2023-05-27T04:24:57;101916.05;;;19.99;26.28
77897;BME280;67092;64.282;21.056;2023-05-27T04:27:22;101917.31;;;19.90;26.36
77897;BME280;67092;64.282;21.056;2023-05-27T04:29:48;101916.27;;;20.22;26.28
77897;BME280;67092;64.282;21.056;2023-05-27T04:32:14;101914.13;;;19.94;26.49
77897;BME280;67092;64.282;21.056;2023-05-27T04:34:39;101917.98;;;20.54;25.70
77897;BME280;67092;64.282;21.056;2023-05-27T04:37:05;101911.20;;;20.02;26.42
77897;BME280;67092;64.282;21.056;2023-05-27T04:39:30;101915.08;;;19.59;26.65
77897;BME280;67092;64.282;21.056;2023-05-27T04:41:56;101915.67;;;19.68;26.81
77897;BME280;67092;64.282;21.056;2023-05-27T04:44:22;101917.41;;;19.89;26.35
77897;BME280;67092;64.282;21.056;2023-05-27T04:46:47;101919.98;;;19.62;26.36
77897;BME280;67092;64.282;21.056;2023-05-27T04:49:13;101923.11;;;19.94;26.33
77897;BME280;67092;64.282;21.056;2023-05-27T04:51:38;101923.14;;;20.08;26.12
77897;BME280;67092;64.282;21.056;2023-05-27T04:54:04;101923.40;;;20.04;26.21
77897;BME280;67092;64.282;21.056;2023-05-27T04:56:30;101920.64;;;19.87;26.34
77897;BME280;67092;64.282;21.056;2023-05-27T04:58:55;101918.86;;;19.97;26.01
77897;BME280;67092;64.282;21.056;2023-05-27T05:01:21;101917.07;;;19.86;26.12
77897;BME280;67092;64.282;21.056;2023-05-27T05:03:47;101918.53;;;20.34;25.87
77897;BME280;67092;64.282;21.056;2023-05-27T05:06:12;101922.93;;;19.60;26.33
77897;BME280;67092;64.282;21.056;2023-05-27T05:08:38;101928.26;;;20.42;26.02
77897;BME280;67092;64.282;21.056;2023-05-27T05:11:03;101928.87;;;19.72;26.23
77897;BME280;67092;64.282;21.056;2023-05-27T05:13:29;101930.60;;;20.03;25.89
77897;BME280;67092;64.282;21.056;2023-05-27T05:15:55;101930.89;;;19.81;26.31
77897;BME280;67092;64.282;21.056;2023-05-27T05:18:20;101932.17;;;19.98;25.91
77897;BME280;67092;64.282;21.056;2023-05-27T05:20:46;101938.42;;;19.65;26.45
77897;BME280;67092;64.282;21.056;2023-05-27T05:23:11;101933.77;;;19.80;26.31
77897;BME280;67092;64.282;21.056;2023-05-27T05:25:37;101936.78;;;19.61;26.53
77897;BME280;67092;64.282;21.056;2023-05-27T05:28:03;101935.09;;;19.75;26.43
77897;BME280;67092;64.282;21.056;2023-05-27T05:30:28;101935.53;;;19.67;26.55
77897;BME280;67092;64.282;21.056;2023-05-27T05:32:54;101933.69;;;19.92;26.48
77897;BME280;67092;64.282;21.056;2023-05-27T05:35:20;101937.22;;;19.51;26.69
77897;BME280;67092;64.282;21.056;2023-05-27T05:37:45;101937.68;;;19.60;26.58
77897;BME280;67092;64.282;21.056;2023-05-27T05:40:11;101935.72;;;19.64;26.49
77897;BME280;67092;64.282;21.056;2023-05-27T05:42:37;101934.73;;;20.13;26.23
77897;BME280;67092;64.282;21.056;2023-05-27T05:45:03;101934.29;;;19.55;26.56
77897;BME280;67092;64.282;21.056;2023-05-27T05:47:28;101932.62;;;19.78;26.31
77897;BME280;67092;64.282;21.056;2023-05-27T05:49:53;101931.47;;;19.44;26.68
77897;BME280;67092;64.282;21.056;2023-05-27T05:52:19;101924.53;;;20.02;26.33
77897;BME280;67092;64.282;21.056;2023-05-27T05:54:44;101931.15;;;19.93;26.20
77897;BME280;67092;64.282;21.056;2023-05-27T05:57:10;101928.99;;;19.78;26.33
77897;BME280;67092;64.282;21.056;2023-05-27T05:59:36;101935.64;;;19.32;26.79
77897;BME280;67092;64.282;21.056;2023-05-27T06:02:01;101934.63;;;19.25;26.86
77897;BME280;67092;64.282;21.056;2023-05-27T06:04:27;101932.09;;;19.82;26.53
77897;BME280;67092;64.282;21.056;2023-05-27T06:06:53;101930.49;;;20.12;26.20
77897;BME280;67092;64.282;21.056;2023-05-27T06:09:18;101933.48;;;19.72;26.36
77897;BME280;67092;64.282;21.056;2023-05-27T06:11:44;101936.69;;;19.68;26.39
77897;BME280;67092;64.282;21.056;2023-05-27T06:14:09;101944.24;;;19.48;26.54
77897;BME280;67092;64.282;21.056;2023-05-27T06:16:35;101943.53;;;19.40;26.65
77897;BME280;67092;64.282;21.056;2023-05-27T06:19:01;101941.64;;;19.69;26.63
77897;BME280;67092;64.282;21.056;2023-05-27T06:21:26;101945.05;;;19.85;26.28
77897;BME280;67092;64.282;21.056;2023-05-27T06:23:52;101944.26;;;19.92;26.17
77897;BME280;67092;64.282;21.056;2023-05-27T06:26:17;101945.67;;;19.38;26.72
77897;BME280;67092;64.282;21.056;2023-05-27T06:28:43;101945.37;;;19.31;26.81
77897;BME280;67092;64.282;21.056;2023-05-27T06:31:09;101939.82;;;19.96;26.15
77897;BME280;67092;64.282;21.056;2023-05-27T06:33:34;101935.53;;;19.47;26.88
77897;BME280;67092;64.282;21.056;2023-05-27T06:36:00;101933.49;;;19.75;26.36
77897;BME280;67092;64.282;21.056;2023-05-27T06:38:25;101937.32;;;19.81;26.50
77897;BME280;67092;64.282;21.056;2023-05-27T06:40:51;101938.68;;;19.59;26.65
77897;BME280;67092;64.282;21.056;2023-05-27T06:43:17;101937.57;;;19.60;26.40
77897;BME280;67092;64.282;21.056;2023-05-27T06:45:42;101933.75;;;19.90;26.08
77897;BME280;67092;64.282;21.056;2023-05-27T06:48:08;101935.47;;;19.89;26.13
77897;BME280;67092;64.282;21.056;2023-05-27T06:50:34;101934.59;;;20.14;26.07
77897;BME280;67092;64.282;21.056;2023-05-27T06:52:59;101934.74;;;20.13;26.11
77897;BME280;67092;64.282;21.056;2023-05-27T06:55:25;101931.61;;;19.50;26.24
77897;BME280;67092;64.282;21.056;2023-05-27T06:57:50;101927.69;;;19.94;26.07
77897;BME280;67092;64.282;21.056;2023-05-27T07:00:17;101924.26;;;19.95;26.06
77897;BME280;67092;64.282;21.056;2023-05-27T07:02:42;101928.43;;;20.03;26.05
77897;BME280;67092;64.282;21.056;2023-05-27T07:05:08;101928.27;;;19.81;26.32
77897;BME280;67092;64.282;21.056;2023-05-27T07:07:33;101933.17;;;19.81;26.59
77897;BME280;67092;64.282;21.056;2023-05-27T07:09:58;101933.21;;;19.30;26.82
77897;BME280;67092;64.282;21.056;2023-05-27T07:12:24;101931.56;;;19.63;26.71
77897;BME280;67092;64.282;21.056;2023-05-27T07:14:50;101925.08;;;19.75;26.44
77897;BME280;67092;64.282;21.056;2023-05-27T07:17:15;101925.95;;;19.75;26.47
77897;BME280;67092;64.282;21.056;2023-05-27T07:19:41;101934.87;;;19.60;26.64
77897;BME280;67092;64.282;21.056;2023-05-27T07:22:07;101930.68;;;20.29;26.17
77897;BME280;67092;64.282;21.056;2023-05-27T07:24:32;101932.36;;;19.57;26.62
77897;BME280;67092;64.282;21.056;2023-05-27T07:26:58;101922.37;;;20.05;26.40
77897;BME280;67092;64.282;21.056;2023-05-27T07:29:23;101924.36;;;19.69;26.57
77897;BME280;67092;64.282;21.056;2023-05-27T07:31:49;101921.95;;;20.05;26.13
77897;BME280;67092;64.282;21.056;2023-05-27T07:34:15;101915.78;;;20.00;26.23
77897;BME280;67092;64.282;21.056;2023-05-27T07:36:40;101916.01;;;20.00;26.21
77897;BME280;67092;64.282;21.056;2023-05-27T07:39:06;101914.06;;;19.71;26.25
77897;BME280;67092;64.282;21.056;2023-05-27T07:41:31;101916.89;;;20.26;26.21
77897;BME280;67092;64.282;21.056;2023-05-27T07:43:57;101915.43;;;20.06;26.40
77897;BME280;67092;64.282;21.056;2023-05-27T07:46:23;101914.23;;;19.78;26.26
77897;BME280;67092;64.282;21.056;2023-05-27T07:48:48;101917.02;;;19.97;26.32
77897;BME280;67092;64.282;21.056;2023-05-27T07:51:14;101910.20;;;19.94;26.33
77897;BME280;67092;64.282;21.056;2023-05-27T07:53:39;101911.03;;;19.93;26.55
77897;BME280;67092;64.282;21.056;2023-05-27T07:56:05;101916.44;;;19.95;26.29
77897;BME280;67092;64.282;21.056;2023-05-27T07:58:31;101909.56;;;19.94;26.28
77897;BME280;67092;64.282;21.056;2023-05-27T08:00:56;101908.89;;;19.71;26.35
77897;BME280;67092;64.282;21.056;2023-05-27T08:03:22;101909.80;;;19.72;26.36
77897;BME280;67092;64.282;21.056;2023-05-27T08:05:48;101907.23;;;19.32;26.53
77897;BME280;67092;64.282;21.056;2023-05-27T08:08:13;101908.88;;;19.66;26.63
77897;BME280;67092;64.282;21.056;2023-05-27T08:10:39;101906.03;;;19.51;26.59
77897;BME280;67092;64.282;21.056;2023-05-27T08:13:05;101894.73;;;19.46;26.63
77897;BME280;67092;64.282;21.056;2023-05-27T08:15:30;101887.30;;;19.64;26.45
77897;BME280;67092;64.282;21.056;2023-05-27T08:17:56;101892.81;;;19.80;26.53
77897;BME280;67092;64.282;21.056;2023-05-27T08:20:21;101893.77;;;19.59;26.45
77897;BME280;67092;64.282;21.056;2023-05-27T08:22:47;101891.03;;;19.44;26.58
77897;BME280;67092;64.282;21.056;2023-05-27T08:25:13;101884.66;;;19.74;26.29
77897;BME280;67092;64.282;21.056;2023-05-27T08:27:45;101882.11;;;19.95;26.52
77897;BME280;67092;64.282;21.056;2023-05-27T08:30:05;101885.71;;;19.87;26.41
77897;BME280;67092;64.282;21.056;2023-05-27T08:32:29;101879.98;;;20.30;26.24
77897;BME280;67092;64.282;21.056;2023-05-27T08:34:55;101880.27;;;20.09;26.48
77897;BME280;67092;64.282;21.056;2023-05-27T08:37:20;101884.09;;;19.94;26.79
77897;BME280;67092;64.282;21.056;2023-05-27T08:39:46;101880.31;;;20.06;26.69
77897;BME280;67092;64.282;21.056;2023-05-27T08:42:12;101880.00;;;20.10;26.64
77897;BME280;67092;64.282;21.056;2023-05-27T08:44:37;101877.01;;;20.20;26.60
77897;BME280;67092;64.282;21.056;2023-05-27T08:47:08;101873.45;;;20.39;26.66
77897;BME280;67092;64.282;21.056;2023-05-27T08:49:29;101868.39;;;20.50;26.31
77897;BME280;67092;64.282;21.056;2023-05-27T08:51:55;101872.13;;;20.50;26.33
77897;BME280;67092;64.282;21.056;2023-05-27T08:54:20;101867.64;;;20.30;26.48
77897;BME280;67092;64.282;21.056;2023-05-27T08:56:46;101868.72;;;20.13;26.71
77897;BME280;67092;64.282;21.056;2023-05-27T08:59:12;101861.14;;;20.07;26.80
77897;BME280;67092;64.282;21.056;2023-05-27T09:01:37;101861.22;;;20.09;26.48
77897;BME280;67092;64.282;21.056;2023-05-27T09:04:02;101864.82;;;20.12;26.64
77897;BME280;67092;64.282;21.056;2023-05-27T09:06:28;101865.19;;;20.43;26.10
77897;BME280;67092;64.282;21.056;2023-05-27T09:08:54;101863.10;;;20.06;26.74
77897;BME280;67092;64.282;21.056;2023-05-27T09:11:21;101862.94;;;20.03;26.98
77897;BME280;67092;64.282;21.056;2023-05-27T09:13:46;101861.84;;;19.85;26.94
77897;BME280;67092;64.282;21.056;2023-05-27T09:16:50;101862.83;;;20.36;26.21
77897;BME280;67092;64.282;21.056;2023-05-27T09:18:36;101859.01;;;19.81;26.74
77897;BME280;67092;64.282;21.056;2023-05-27T09:21:02;101859.81;;;20.15;26.69
77897;BME280;67092;64.282;21.056;2023-05-27T09:23:28;101855.47;;;19.64;26.97
77897;BME280;67092;64.282;21.056;2023-05-27T09:25:54;101854.16;;;20.22;26.76
77897;BME280;67092;64.282;21.056;2023-05-27T09:28:22;101843.42;;;21.02;26.00
77897;BME280;67092;64.282;21.056;2023-05-27T09:30:44;101832.62;;;20.23;26.43
77897;BME280;67092;64.282;21.056;2023-05-27T09:33:09;101834.68;;;20.35;26.25
77897;BME280;67092;64.282;21.056;2023-05-27T09:35:38;101830.86;;;20.01;26.78
77897;BME280;67092;64.282;21.056;2023-05-27T09:38:06;101836.93;;;20.17;26.58
77897;BME280;67092;64.282;21.056;2023-05-27T09:40:26;101820.95;;;20.24;26.23
77897;BME280;67092;64.282;21.056;2023-05-27T09:42:53;101822.73;;;19.94;26.50
77897;BME280;67092;64.282;21.056;2023-05-27T09:45:18;101831.32;;;20.34;26.09
77897;BME280;67092;64.282;21.056;2023-05-27T09:47:48;101821.10;;;20.41;25.98
77897;BME280;67092;64.282;21.056;2023-05-27T09:50:09;101822.33;;;20.16;26.18
77897;BME280;67092;64.282;21.056;2023-05-27T09:52:34;101822.49;;;20.36;25.95
77897;BME280;67092;64.282;21.056;2023-05-27T09:55:00;101818.94;;;20.18;26.35
77897;BME280;67092;64.282;21.056;2023-05-27T09:57:26;101815.30;;;19.98;26.32
77897;BME280;67092;64.282;21.056;2023-05-27T09:59:51;101813.09;;;20.08;26.17
77897;BME280;67092;64.282;21.056;2023-05-27T10:02:17;101811.24;;;19.85;26.15
77897;BME280;67092;64.282;21.056;2023-05-27T10:04:42;101805.81;;;20.00;26.22
77897;BME280;67092;64.282;21.056;2023-05-27T10:07:08;101801.13;;;19.93;26.28
77897;BME280;67092;64.282;21.056;2023-05-27T10:09:33;101807.89;;;20.30;26.17
77897;BME280;67092;64.282;21.056;2023-05-27T10:11:59;101802.28;;;20.24;26.18
77897;BME280;67092;64.282;21.056;2023-05-27T10:14:24;101791.19;;;20.17;26.24
77897;BME280;67092;64.282;21.056;2023-05-27T10:16:52;101790.89;;;20.00;26.16
77897;BME280;67092;64.282;21.056;2023-05-27T10:19:16;101792.67;;;20.05;26.06
77897;BME280;67092;64.282;21.056;2023-05-27T10:21:43;101789.15;;;20.79;25.35
77897;BME280;67092;64.282;21.056;2023-05-27T10:24:10;101781.72;;;19.98;26.14
77897;BME280;67092;64.282;21.056;2023-05-27T10:26:33;101774.00;;;20.14;26.18
77897;BME280;67092;64.282;21.056;2023-05-27T10:29:07;101780.96;;;20.23;26.10
77897;BME280;67092;64.282;21.056;2023-05-27T10:31:29;101776.21;;;20.27;25.78
77897;BME280;67092;64.282;21.056;2023-05-27T10:33:50;101776.34;;;20.26;25.76
77897;BME280;67092;64.282;21.056;2023-05-27T10:36:16;101776.09;;;20.72;25.54
77897;BME280;67092;64.282;21.056;2023-05-27T10:38:41;101770.95;;;20.25;26.24
77897;BME280;67092;64.282;21.056;2023-05-27T10:41:07;101769.03;;;20.25;25.78
77897;BME280;67092;64.282;21.056;2023-05-27T10:43:32;101763.30;;;20.19;25.77
77897;BME280;67092;64.282;21.056;2023-05-27T10:46:04;101766.65;;;19.83;26.14
77897;BME280;67092;64.282;21.056;2023-05-27T10:48:28;101764.00;;;20.24;25.71
77897;BME280;67092;64.282;21.056;2023-05-27T10:50:51;101762.49;;;20.35;25.58
77897;BME280;67092;64.282;21.056;2023-05-27T10:53:16;101759.17;;;20.58;25.57
77897;BME280;67092;64.282;21.056;2023-05-27T10:55:41;101759.29;;;20.49;25.31
77897;BME280;67092;64.282;21.056;2023-05-27T10:58:06;101751.36;;;20.02;25.80
77897;BME280;67092;64.282;21.056;2023-05-27T11:00:32;101757.06;;;20.15;25.74
77897;BME280;67092;64.282;21.056;2023-05-27T11:02:57;101751.94;;;20.22;25.69
77897;BME280;67092;64.282;21.056;2023-05-27T11:05:32;101753.69;;;20.10;25.79
77897;BME280;67092;64.282;21.056;2023-05-27T11:07:48;101749.07;;;20.35;25.86
77897;BME280;67092;64.282;21.056;2023-05-27T11:10:14;101741.22;;;20.33;25.68
77897;BME280;67092;64.282;21.056;2023-05-27T11:12:43;101741.19;;;20.70;25.53
77897;BME280;67092;64.282;21.056;2023-05-27T11:15:06;101739.15;;;20.38;25.89
77897;BME280;67092;64.282;21.056;2023-05-27T11:17:31;101730.73;;;20.19;25.83
77897;BME280;67092;64.282;21.056;2023-05-27T11:19:56;101728.50;;;20.54;25.76
77897;BME280;67092;64.282;21.056;2023-05-27T11:22:49;101735.91;;;19.62;26.21
77897;BME280;67092;64.282;21.056;2023-05-27T11:24:56;101735.61;;;20.21;25.87
77897;BME280;67092;64.282;21.056;2023-05-27T11:27:14;101735.38;;;20.26;25.85
77897;BME280;67092;64.282;21.056;2023-05-27T11:29:39;101724.21;;;20.62;25.53
77897;BME280;67092;64.282;21.056;2023-05-27T11:32:05;101726.50;;;20.63;25.51
77897;BME280;67092;64.282;21.056;2023-05-27T11:34:30;101717.95;;;20.27;25.89
77897;BME280;67092;64.282;21.056;2023-05-27T11:36:55;101725.70;;;20.31;25.89
77897;BME280;67092;64.282;21.056;2023-05-27T11:39:21;101727.89;;;20.35;25.83
77897;BME280;67092;64.282;21.056;2023-05-27T11:41:49;101722.49;;;20.54;25.73
77897;BME280;67092;64.282;21.056;2023-05-27T11:44:18;101719.43;;;20.26;26.02
77897;BME280;67092;64.282;21.056;2023-05-27T11:46:40;101714.79;;;20.22;26.11
77897;BME280;67092;64.282;21.056;2023-05-27T11:49:04;101713.59;;;20.22;26.10
77897;BME280;67092;64.282;21.056;2023-05-27T11:51:29;101708.09;;;20.64;25.67
77897;BME280;67092;64.282;21.056;2023-05-27T11:53:55;101710.11;;;20.30;26.01
77897;BME280;67092;64.282;21.056;2023-05-27T11:56:20;101711.18;;;20.69;25.71
77897;BME280;67092;64.282;21.056;2023-05-27T11:58:46;101706.83;;;20.43;25.90
77897;BME280;67092;64.282;21.056;2023-05-27T12:01:11;101701.36;;;21.09;25.50
77897;BME280;67092;64.282;21.056;2023-05-27T12:03:37;101700.21;;;21.21;25.20
77897;BME280;67092;64.282;21.056;2023-05-27T12:06:03;101692.89;;;20.78;25.58
77897;BME280;67092;64.282;21.056;2023-05-27T12:08:28;101691.28;;;20.67;25.67
77897;BME280;67092;64.282;21.056;2023-05-27T12:10:54;101688.63;;;20.47;25.88
77897;BME280;67092;64.282;21.056;2023-05-27T12:13:20;101684.89;;;20.76;25.78
77897;BME280;67092;64.282;21.056;2023-05-27T12:15:45;101682.75;;;21.04;25.26
77897;BME280;67092;64.282;21.056;2023-05-27T12:18:11;101675.44;;;20.53;25.70
77897;BME280;67092;64.282;21.056;2023-05-27T12:20:36;101666.23;;;20.62;25.86
77897;BME280;67092;64.282;21.056;2023-05-27T12:23:02;101670.44;;;20.54;25.67
77897;BME280;67092;64.282;21.056;2023-05-27T12:25:27;101668.95;;;20.53;25.68
77897;BME280;67092;64.282;21.056;2023-05-27T12:27:53;101668.78;;;20.11;26.08
77897;BME280;67092;64.282;21.056;2023-05-27T12:30:19;101669.34;;;20.24;25.95